createdAt,value
2023-04-15T00:07:00.591Z,100.00
2023-04-15T00:14:20.105Z,100.00
2023-04-15T00:21:38.202Z,100.00
2023-04-15T00:28:56.323Z,100.00
2023-04-15T00:36:16.846Z,100.00
2023-04-15T00:43:34.964Z,100.00
2023-04-15T00:50:53.059Z,100.00
2023-04-15T00:58:13.780Z,100.00
2023-04-15T01:05:33.795Z,100.00
2023-04-15T01:12:52.620Z,100.00
2023-04-15T01:20:12.817Z,100.00
2023-04-15T01:27:32.561Z,100.00
2023-04-15T01:34:51.040Z,100.00
2023-04-15T01:42:09.415Z,100.00
2023-04-15T01:49:29.253Z,100.00
2023-04-15T01:56:47.676Z,100.00
2023-04-15T02:04:06.003Z,100.00
2023-04-15T02:11:25.725Z,100.00
2023-04-15T02:18:45.242Z,100.00
2023-04-15T02:26:03.520Z,100.00
2023-04-15T02:33:25.274Z,100.00
2023-04-15T02:40:44.036Z,100.00
2023-04-15T02:48:06.302Z,100.00
2023-04-15T02:55:26.416Z,100.00
2023-04-15T03:03:25.521Z,100.00
2023-04-15T03:10:45.963Z,100.00
2023-04-15T03:18:04.674Z,100.00
2023-04-15T03:25:23.061Z,100.00
2023-04-15T03:32:43.032Z,100.00
2023-04-15T03:40:01.609Z,100.00
2023-04-15T03:47:19.927Z,100.00
2023-04-15T03:54:39.532Z,100.00
2023-04-15T04:01:57.818Z,100.00
2023-04-15T04:09:16.016Z,100.00
2023-04-15T04:16:40.968Z,100.00
2023-04-15T04:23:59.250Z,100.00
2023-04-15T04:31:17.501Z,100.00
2023-04-15T04:38:37.093Z,100.00
2023-04-15T04:45:55.362Z,100.00
2023-04-15T04:53:13.606Z,100.00
2023-04-15T05:00:33.192Z,100.00
2023-04-15T05:07:51.544Z,100.00
2023-04-15T05:15:10.961Z,100.00
2023-04-15T05:22:30.808Z,100.00
2023-04-15T05:29:49.065Z,100.00
2023-04-15T05:37:07.291Z,100.00
2023-04-15T05:44:27.042Z,100.00
2023-04-15T05:51:45.890Z,100.00
2023-04-15T05:59:04.345Z,100.00
2023-04-15T06:06:23.851Z,100.00
2023-04-15T06:13:42.147Z,100.00
2023-04-15T06:21:00.566Z,100.00
2023-04-15T06:28:20.592Z,100.00
2023-04-15T06:35:39.415Z,100.00
2023-04-15T06:42:57.602Z,100.00
2023-04-15T06:50:17.862Z,100.00
2023-04-15T06:57:36.326Z,100.00
2023-04-15T07:04:54.548Z,100.00
2023-04-15T07:12:18.386Z,100.00
2023-04-15T07:19:36.710Z,100.00
2023-04-15T07:26:57.200Z,100.00
2023-04-15T07:34:18.375Z,100.00
2023-04-15T07:41:36.820Z,100.00
2023-04-15T07:48:55.194Z,100.00
2023-04-15T07:56:14.908Z,100.00
2023-04-15T08:03:34.236Z,100.00
2023-04-15T08:10:52.991Z,100.00
2023-04-15T08:18:12.546Z,100.00
2023-04-15T08:25:30.746Z,100.00
2023-04-15T08:32:49.233Z,87.87
2023-04-15T08:40:10.925Z,80.72
2023-04-15T08:47:31.682Z,83.35
2023-04-15T08:54:51.390Z,72.52
2023-04-15T09:02:14.021Z,71.26
2023-04-15T09:09:37.578Z,78.10
2023-04-15T09:16:59.848Z,75.03
2023-04-15T09:24:19.888Z,67.37
2023-04-15T09:31:38.456Z,62.11
2023-04-15T09:38:57.519Z,58.32
2023-04-15T09:46:17.030Z,58.39
2023-04-15T09:53:36.752Z,55.39
2023-04-15T10:00:56.519Z,59.35
2023-04-15T10:08:17.212Z,59.84
2023-04-15T10:15:35.907Z,64.87
2023-04-15T10:22:54.614Z,58.81
2023-04-15T10:30:14.736Z,57.36
2023-04-15T10:37:37.316Z,56.70
2023-04-15T10:44:58.427Z,59.81
2023-04-15T10:52:19.246Z,60.80
2023-04-15T10:59:38.792Z,56.33
2023-04-15T11:07:07.062Z,53.20
2023-04-15T11:14:26.982Z,55.53
2023-04-15T11:21:45.134Z,51.24
2023-04-15T11:29:03.704Z,46.62
2023-04-15T11:36:26.687Z,51.28
2023-04-15T11:43:44.920Z,50.72
2023-04-15T11:51:03.871Z,50.78
2023-04-15T11:58:24.694Z,55.94
2023-04-15T12:06:08.771Z,55.57
2023-04-15T12:13:31.086Z,56.20
2023-04-15T12:20:50.219Z,55.99
2023-04-15T12:28:14.588Z,54.22
2023-04-15T12:35:34.199Z,53.17
2023-04-15T12:42:52.358Z,54.93
2023-04-15T12:50:10.998Z,50.06
2023-04-15T12:57:30.714Z,48.34
2023-04-15T13:04:49.630Z,52.40
2023-04-15T13:12:08.925Z,49.39
2023-04-15T13:19:28.838Z,49.78
2023-04-15T13:26:48.528Z,51.95
2023-04-15T13:34:08.332Z,53.35
2023-04-15T13:41:28.175Z,49.84
2023-04-15T13:48:46.645Z,51.15
2023-04-15T13:56:05.939Z,51.65
2023-04-15T14:03:25.950Z,49.68
2023-04-15T14:10:48.613Z,52.88
2023-04-15T14:18:07.094Z,50.58
2023-04-15T14:25:33.777Z,51.82
2023-04-15T14:32:52.772Z,51.83
2023-04-15T14:40:12.585Z,53.17
2023-04-15T14:47:32.352Z,54.51
2023-04-15T14:54:50.629Z,56.98
2023-04-15T15:02:10.573Z,56.20
2023-04-15T15:09:32.000Z,57.03
2023-04-15T15:16:51.747Z,58.05
2023-04-15T15:24:13.227Z,56.40
2023-04-15T15:31:33.314Z,54.35
2023-04-15T15:38:52.287Z,55.74
2023-04-15T15:46:10.843Z,54.53
2023-04-15T15:53:30.623Z,57.11
2023-04-15T16:00:49.220Z,57.27
2023-04-15T16:08:08.030Z,56.54
2023-04-15T16:15:28.016Z,57.04
2023-04-15T16:22:46.238Z,56.55
2023-04-15T16:30:05.092Z,58.96
2023-04-15T16:37:24.844Z,59.47
2023-04-15T16:44:43.062Z,62.55
2023-04-15T16:52:01.222Z,63.45
2023-04-15T16:59:20.969Z,64.80
2023-04-15T17:06:39.540Z,64.58
2023-04-15T17:13:57.918Z,66.03
2023-04-15T17:21:17.676Z,69.81
2023-04-15T17:28:36.293Z,71.30
2023-04-15T17:35:54.508Z,86.66
2023-04-15T17:43:14.501Z,98.21
2023-04-15T17:50:33.011Z,100.00
2023-04-15T17:57:51.452Z,100.00
2023-04-15T18:05:11.990Z,100.00
2023-04-15T18:12:30.618Z,100.00
2023-04-15T18:19:49.331Z,100.00
2023-04-15T18:27:09.665Z,100.00
2023-04-15T18:34:28.444Z,100.00
2023-04-15T18:41:52.030Z,100.00
2023-04-15T18:49:15.376Z,100.00
2023-04-15T18:56:36.946Z,100.00
2023-04-15T19:03:55.461Z,100.00
2023-04-15T19:11:16.012Z,100.00
2023-04-15T19:18:34.831Z,100.00
2023-04-15T19:25:54.086Z,100.00
2023-04-15T19:33:14.575Z,100.00
2023-04-15T19:40:33.889Z,100.00
2023-04-15T19:47:56.764Z,100.00
2023-04-15T19:55:16.844Z,100.00
2023-04-15T20:02:35.472Z,100.00
2023-04-15T20:09:54.188Z,100.00
2023-04-15T20:17:14.350Z,100.00
2023-04-15T20:24:32.781Z,100.00
2023-04-15T20:31:51.212Z,100.00
2023-04-15T20:39:11.397Z,100.00
2023-04-15T20:46:30.025Z,100.00
2023-04-15T20:53:49.293Z,100.00
2023-04-15T21:01:09.289Z,100.00
2023-04-15T21:08:31.850Z,100.00
2023-04-15T21:16:39.648Z,100.00
2023-04-15T21:24:12.797Z,100.00
2023-04-15T22:05:25.405Z,100.00
2023-04-15T22:13:09.735Z,100.00
2023-04-15T22:20:38.790Z,100.00
2023-04-15T22:27:57.186Z,100.00
2023-04-15T22:35:16.026Z,100.00
2023-04-15T22:42:35.747Z,100.00
2023-04-15T22:49:54.238Z,100.00
2023-04-15T22:57:12.533Z,100.00
2023-04-15T23:04:32.528Z,100.00
2023-04-15T23:11:52.385Z,100.00
2023-04-15T23:19:11.095Z,100.00
2023-04-15T23:26:31.282Z,100.00
2023-04-15T23:33:49.636Z,100.00
2023-04-15T23:41:08.996Z,100.00
2023-04-15T23:48:30.226Z,100.00
2023-04-15T23:55:49.282Z,100.00
